sensor_id;sensor_type;location;lat;lon;timestamp;P1;durP1;ratioP1;P2;durP2;ratioP2
69769;SDS011;57282;52.514;13.458;2023-04-02T00:01:17;14.25;;;6.82;;
69769;SDS011;57282;52.514;13.458;2023-04-02T00:06:33;15.82;;;8.32;;
69769;SDS011;57282;52.514;13.458;2023-04-02T00:09:15;16.25;;;8.05;;
69769;SDS011;57282;52.514;13.458;2023-04-02T00:11:45;17.10;;;8.23;;
69769;SDS011;57282;52.514;13.458;2023-04-02T00:14:14;15.48;;;7.55;;
69769;SDS011;57282;52.514;13.458;2023-04-02T00:16:41;16.23;;;7.63;;
69769;SDS011;57282;52.514;13.458;2023-04-02T00:19:11;14.43;;;6.15;;
69769;SDS011;57282;52.514;13.458;2023-04-02T00:21:38;13.73;;;7.10;;
69769;SDS011;57282;52.514;13.458;2023-04-02T00:24:09;13.00;;;5.88;;
69769;SDS011;57282;52.514;13.458;2023-04-02T00:26:37;11.95;;;5.95;;
69769;SDS011;57282;52.514;13.458;2023-04-02T00:29:06;12.70;;;6.37;;
69769;SDS011;57282;52.514;13.458;2023-04-02T00:31:35;15.40;;;6.47;;
69769;SDS011;57282;52.514;13.458;2023-04-02T00:34:03;12.55;;;6.28;;
69769;SDS011;57282;52.514;13.458;2023-04-02T00:36:30;12.95;;;5.63;;
69769;SDS011;57282;52.514;13.458;2023-04-02T00:38:59;12.38;;;5.55;;
69769;SDS011;57282;52.514;13.458;2023-04-02T00:41:27;10.97;;;5.10;;
69769;SDS011;57282;52.514;13.458;2023-04-02T00:43:55;10.65;;;5.78;;
69769;SDS011;57282;52.514;13.458;2023-04-02T00:46:26;9.82;;;5.10;;
69769;SDS011;57282;52.514;13.458;2023-04-02T00:48:56;20.88;;;8.82;;
69769;SDS011;57282;52.514;13.458;2023-04-02T00:51:25;10.48;;;5.20;;
69769;SDS011;57282;52.514;13.458;2023-04-02T00:53:53;11.37;;;5.77;;
69769;SDS011;57282;52.514;13.458;2023-04-02T00:56:21;13.65;;;7.25;;
69769;SDS011;57282;52.514;13.458;2023-04-02T00:58:51;12.85;;;6.07;;
69769;SDS011;57282;52.514;13.458;2023-04-02T01:01:19;12.02;;;5.43;;
69769;SDS011;57282;52.514;13.458;2023-04-02T01:03:55;11.73;;;5.90;;
69769;SDS011;57282;52.514;13.458;2023-04-02T01:06:22;12.40;;;6.47;;
69769;SDS011;57282;52.514;13.458;2023-04-02T01:08:57;15.15;;;6.93;;
69769;SDS011;57282;52.514;13.458;2023-04-02T01:11:30;14.02;;;6.30;;
69769;SDS011;57282;52.514;13.458;2023-04-02T01:14:05;12.57;;;6.43;;
69769;SDS011;57282;52.514;13.458;2023-04-02T01:16:34;10.10;;;5.50;;
69769;SDS011;57282;52.514;13.458;2023-04-02T01:19:15;9.43;;;5.30;;
69769;SDS011;57282;52.514;13.458;2023-04-02T01:21:51;13.45;;;5.63;;
69769;SDS011;57282;52.514;13.458;2023-04-02T01:24:21;10.38;;;4.93;;
69769;SDS011;57282;52.514;13.458;2023-04-02T01:26:51;10.70;;;5.60;;
69769;SDS011;57282;52.514;13.458;2023-04-02T01:29:21;13.25;;;5.32;;
69769;SDS011;57282;52.514;13.458;2023-04-02T01:31:49;15.10;;;5.53;;
69769;SDS011;57282;52.514;13.458;2023-04-02T01:34:16;12.40;;;5.28;;
69769;SDS011;57282;52.514;13.458;2023-04-02T01:36:46;10.07;;;3.67;;
69769;SDS011;57282;52.514;13.458;2023-04-02T01:39:18;12.25;;;4.57;;
69769;SDS011;57282;52.514;13.458;2023-04-02T01:41:46;10.60;;;4.78;;
69769;SDS011;57282;52.514;13.458;2023-04-02T01:44:17;9.97;;;4.13;;
69769;SDS011;57282;52.514;13.458;2023-04-02T01:46:48;11.65;;;4.35;;
69769;SDS011;57282;52.514;13.458;2023-04-02T01:49:17;11.60;;;4.25;;
69769;SDS011;57282;52.514;13.458;2023-04-02T01:51:44;11.35;;;3.80;;
69769;SDS011;57282;52.514;13.458;2023-04-02T01:54:12;11.48;;;4.57;;
69769;SDS011;57282;52.514;13.458;2023-04-02T01:56:40;12.97;;;4.50;;
69769;SDS011;57282;52.514;13.458;2023-04-02T01:59:08;7.25;;;3.63;;
69769;SDS011;57282;52.514;13.458;2023-04-02T02:01:37;9.50;;;4.03;;
69769;SDS011;57282;52.514;13.458;2023-04-02T02:04:06;11.68;;;4.55;;
69769;SDS011;57282;52.514;13.458;2023-04-02T02:06:35;12.15;;;4.78;;
69769;SDS011;57282;52.514;13.458;2023-04-02T02:09:02;10.50;;;4.60;;
69769;SDS011;57282;52.514;13.458;2023-04-02T02:11:29;8.25;;;4.00;;
69769;SDS011;57282;52.514;13.458;2023-04-02T02:13:58;9.93;;;4.03;;
69769;SDS011;57282;52.514;13.458;2023-04-02T02:16:25;11.93;;;4.30;;
69769;SDS011;57282;52.514;13.458;2023-04-02T02:18:53;11.65;;;4.13;;
69769;SDS011;57282;52.514;13.458;2023-04-02T02:21:25;6.43;;;3.67;;
69769;SDS011;57282;52.514;13.458;2023-04-02T02:23:53;9.75;;;3.90;;
69769;SDS011;57282;52.514;13.458;2023-04-02T02:26:21;9.75;;;3.88;;
69769;SDS011;57282;52.514;13.458;2023-04-02T02:28:48;8.15;;;4.03;;
69769;SDS011;57282;52.514;13.458;2023-04-02T02:31:18;9.43;;;3.80;;
69769;SDS011;57282;52.514;13.458;2023-04-02T02:33:48;8.97;;;3.57;;
69769;SDS011;57282;52.514;13.458;2023-04-02T02:36:18;8.38;;;3.88;;
69769;SDS011;57282;52.514;13.458;2023-04-02T02:38:49;9.80;;;4.18;;
69769;SDS011;57282;52.514;13.458;2023-04-02T02:41:18;10.93;;;3.95;;
69769;SDS011;57282;52.514;13.458;2023-04-02T02:43:51;9.57;;;4.05;;
69769;SDS011;57282;52.514;13.458;2023-04-02T02:46:18;11.13;;;3.70;;
69769;SDS011;57282;52.514;13.458;2023-04-02T02:48:45;8.48;;;3.83;;
69769;SDS011;57282;52.514;13.458;2023-04-02T02:51:15;10.30;;;3.95;;
69769;SDS011;57282;52.514;13.458;2023-04-02T02:53:44;10.00;;;4.28;;
69769;SDS011;57282;52.514;13.458;2023-04-02T02:56:13;13.63;;;6.28;;
69769;SDS011;57282;52.514;13.458;2023-04-02T02:58:39;11.70;;;3.83;;
69769;SDS011;57282;52.514;13.458;2023-04-02T03:01:06;10.50;;;4.50;;
69769;SDS011;57282;52.514;13.458;2023-04-02T03:03:33;10.02;;;3.92;;
69769;SDS011;57282;52.514;13.458;2023-04-02T03:06:00;9.63;;;5.00;;
69769;SDS011;57282;52.514;13.458;2023-04-02T03:08:28;9.45;;;4.53;;
69769;SDS011;57282;52.514;13.458;2023-04-02T03:10:58;7.77;;;4.33;;
69769;SDS011;57282;52.514;13.458;2023-04-02T03:13:28;36.83;;;17.42;;
69769;SDS011;57282;52.514;13.458;2023-04-02T03:15:58;14.40;;;6.45;;
69769;SDS011;57282;52.514;13.458;2023-04-02T03:18:36;60.03;;;23.33;;
69769;SDS011;57282;52.514;13.458;2023-04-02T03:21:05;11.70;;;5.53;;
69769;SDS011;57282;52.514;13.458;2023-04-02T03:23:35;10.37;;;4.37;;
69769;SDS011;57282;52.514;13.458;2023-04-02T03:26:05;12.30;;;5.18;;
69769;SDS011;57282;52.514;13.458;2023-04-02T03:28:35;10.68;;;5.00;;
69769;SDS011;57282;52.514;13.458;2023-04-02T03:31:04;11.15;;;5.07;;
69769;SDS011;57282;52.514;13.458;2023-04-02T03:33:32;12.18;;;5.05;;
69769;SDS011;57282;52.514;13.458;2023-04-02T03:36:00;12.20;;;4.63;;
69769;SDS011;57282;52.514;13.458;2023-04-02T03:38:29;10.07;;;4.53;;
69769;SDS011;57282;52.514;13.458;2023-04-02T03:40:58;9.18;;;4.53;;
69769;SDS011;57282;52.514;13.458;2023-04-02T03:43:26;9.63;;;4.78;;
69769;SDS011;57282;52.514;13.458;2023-04-02T03:45:56;10.07;;;4.57;;
69769;SDS011;57282;52.514;13.458;2023-04-02T03:48:25;8.73;;;4.20;;
69769;SDS011;57282;52.514;13.458;2023-04-02T03:50:54;7.95;;;4.63;;
69769;SDS011;57282;52.514;13.458;2023-04-02T03:53:22;8.15;;;4.13;;
69769;SDS011;57282;52.514;13.458;2023-04-02T03:55:49;10.93;;;5.13;;
69769;SDS011;57282;52.514;13.458;2023-04-02T03:58:20;8.90;;;4.25;;
69769;SDS011;57282;52.514;13.458;2023-04-02T04:00:50;7.80;;;3.67;;
69769;SDS011;57282;52.514;13.458;2023-04-02T04:03:20;7.50;;;3.72;;
69769;SDS011;57282;52.514;13.458;2023-04-02T04:05:48;7.75;;;3.60;;
69769;SDS011;57282;52.514;13.458;2023-04-02T04:08:17;8.93;;;4.93;;
69769;SDS011;57282;52.514;13.458;2023-04-02T04:10:45;7.78;;;3.60;;
69769;SDS011;57282;52.514;13.458;2023-04-02T04:13:16;6.53;;;3.73;;
69769;SDS011;57282;52.514;13.458;2023-04-02T04:15:47;9.10;;;4.43;;
69769;SDS011;57282;52.514;13.458;2023-04-02T04:18:16;8.27;;;3.90;;
69769;SDS011;57282;52.514;13.458;2023-04-02T04:20:48;8.05;;;4.20;;
69769;SDS011;57282;52.514;13.458;2023-04-02T04:23:24;7.50;;;3.65;;
69769;SDS011;57282;52.514;13.458;2023-04-02T04:25:58;6.17;;;3.37;;
69769;SDS011;57282;52.514;13.458;2023-04-02T04:28:28;8.77;;;4.00;;
69769;SDS011;57282;52.514;13.458;2023-04-02T04:30:57;7.75;;;3.78;;
69769;SDS011;57282;52.514;13.458;2023-04-02T04:33:26;7.60;;;3.35;;
69769;SDS011;57282;52.514;13.458;2023-04-02T04:36:00;6.15;;;3.50;;
69769;SDS011;57282;52.514;13.458;2023-04-02T04:38:29;8.53;;;3.23;;
69769;SDS011;57282;52.514;13.458;2023-04-02T04:40:57;6.80;;;3.42;;
69769;SDS011;57282;52.514;13.458;2023-04-02T04:43:28;8.20;;;2.97;;
69769;SDS011;57282;52.514;13.458;2023-04-02T04:45:58;7.32;;;3.20;;
69769;SDS011;57282;52.514;13.458;2023-04-02T04:48:27;7.28;;;3.10;;
69769;SDS011;57282;52.514;13.458;2023-04-02T04:50:58;6.80;;;2.77;;
69769;SDS011;57282;52.514;13.458;2023-04-02T04:53:29;7.45;;;3.20;;
69769;SDS011;57282;52.514;13.458;2023-04-02T04:55:56;7.38;;;3.95;;
69769;SDS011;57282;52.514;13.458;2023-04-02T04:58:28;7.40;;;3.80;;
69769;SDS011;57282;52.514;13.458;2023-04-02T05:00:59;8.45;;;3.72;;
69769;SDS011;57282;52.514;13.458;2023-04-02T05:03:32;7.73;;;2.90;;
69769;SDS011;57282;52.514;13.458;2023-04-02T05:06:03;7.68;;;3.50;;
69769;SDS011;57282;52.514;13.458;2023-04-02T05:08:34;6.28;;;3.08;;
69769;SDS011;57282;52.514;13.458;2023-04-02T05:11:03;6.50;;;3.22;;
69769;SDS011;57282;52.514;13.458;2023-04-02T05:13:32;6.45;;;3.00;;
69769;SDS011;57282;52.514;13.458;2023-04-02T05:16:03;5.97;;;3.00;;
69769;SDS011;57282;52.514;13.458;2023-04-02T05:18:35;7.00;;;3.22;;
69769;SDS011;57282;52.514;13.458;2023-04-02T05:21:05;6.68;;;3.60;;
69769;SDS011;57282;52.514;13.458;2023-04-02T05:23:36;7.78;;;3.35;;
69769;SDS011;57282;52.514;13.458;2023-04-02T05:26:05;6.75;;;3.20;;
69769;SDS011;57282;52.514;13.458;2023-04-02T05:28:35;7.20;;;3.47;;
69769;SDS011;57282;52.514;13.458;2023-04-02T05:31:07;6.25;;;2.92;;
69769;SDS011;57282;52.514;13.458;2023-04-02T05:33:37;6.07;;;2.83;;
69769;SDS011;57282;52.514;13.458;2023-04-02T05:36:08;7.18;;;3.28;;
69769;SDS011;57282;52.514;13.458;2023-04-02T05:38:38;5.25;;;2.50;;
69769;SDS011;57282;52.514;13.458;2023-04-02T05:41:06;5.90;;;2.70;;
69769;SDS011;57282;52.514;13.458;2023-04-02T05:43:34;6.38;;;3.25;;
69769;SDS011;57282;52.514;13.458;2023-04-02T05:46:04;5.65;;;2.63;;
69769;SDS011;57282;52.514;13.458;2023-04-02T05:48:34;5.40;;;2.85;;
69769;SDS011;57282;52.514;13.458;2023-04-02T05:51:03;6.82;;;3.20;;
69769;SDS011;57282;52.514;13.458;2023-04-02T05:53:32;5.97;;;3.13;;
69769;SDS011;57282;52.514;13.458;2023-04-02T05:56:02;6.80;;;3.33;;
69769;SDS011;57282;52.514;13.458;2023-04-02T05:58:30;5.50;;;3.05;;
69769;SDS011;57282;52.514;13.458;2023-04-02T06:01:05;6.20;;;2.70;;
69769;SDS011;57282;52.514;13.458;2023-04-02T06:03:38;4.63;;;2.17;;
69769;SDS011;57282;52.514;13.458;2023-04-02T06:06:11;5.50;;;2.58;;
69769;SDS011;57282;52.514;13.458;2023-04-02T06:08:39;5.63;;;2.60;;
69769;SDS011;57282;52.514;13.458;2023-04-02T06:11:11;7.00;;;2.40;;
69769;SDS011;57282;52.514;13.458;2023-04-02T06:13:38;5.07;;;2.30;;
69769;SDS011;57282;52.514;13.458;2023-04-02T06:16:05;6.23;;;2.30;;
69769;SDS011;57282;52.514;13.458;2023-04-02T06:18:32;5.72;;;2.60;;
69769;SDS011;57282;52.514;13.458;2023-04-02T06:21:00;5.90;;;2.78;;
69769;SDS011;57282;52.514;13.458;2023-04-02T06:23:27;5.55;;;2.72;;
69769;SDS011;57282;52.514;13.458;2023-04-02T06:25:58;5.65;;;2.70;;
69769;SDS011;57282;52.514;13.458;2023-04-02T06:28:29;6.33;;;3.47;;
69769;SDS011;57282;52.514;13.458;2023-04-02T06:30:58;5.30;;;2.55;;
69769;SDS011;57282;52.514;13.458;2023-04-02T06:33:26;5.57;;;2.80;;
69769;SDS011;57282;52.514;13.458;2023-04-02T06:35:52;5.18;;;2.35;;
69769;SDS011;57282;52.514;13.458;2023-04-02T06:38:21;6.10;;;2.92;;
69769;SDS011;57282;52.514;13.458;2023-04-02T06:40:49;6.10;;;2.73;;
69769;SDS011;57282;52.514;13.458;2023-04-02T06:43:19;6.75;;;2.40;;
69769;SDS011;57282;52.514;13.458;2023-04-02T06:45:51;6.88;;;2.53;;
69769;SDS011;57282;52.514;13.458;2023-04-02T06:48:20;7.35;;;2.67;;
69769;SDS011;57282;52.514;13.458;2023-04-02T06:50:47;6.78;;;2.50;;
69769;SDS011;57282;52.514;13.458;2023-04-02T06:53:17;5.40;;;2.40;;
69769;SDS011;57282;52.514;13.458;2023-04-02T06:55:46;8.13;;;2.95;;
69769;SDS011;57282;52.514;13.458;2023-04-02T06:58:13;5.82;;;2.80;;
69769;SDS011;57282;52.514;13.458;2023-04-02T07:00:41;6.95;;;2.63;;
69769;SDS011;57282;52.514;13.458;2023-04-02T07:03:14;5.47;;;2.60;;
69769;SDS011;57282;52.514;13.458;2023-04-02T07:05:41;5.37;;;2.27;;
69769;SDS011;57282;52.514;13.458;2023-04-02T07:08:08;5.32;;;2.03;;
69769;SDS011;57282;52.514;13.458;2023-04-02T07:10:34;7.20;;;3.13;;
69769;SDS011;57282;52.514;13.458;2023-04-02T07:13:01;5.75;;;1.98;;
69769;SDS011;57282;52.514;13.458;2023-04-02T07:15:27;6.68;;;2.15;;
69769;SDS011;57282;52.514;13.458;2023-04-02T07:17:54;6.70;;;2.43;;
69769;SDS011;57282;52.514;13.458;2023-04-02T07:20:25;4.75;;;2.25;;
69769;SDS011;57282;52.514;13.458;2023-04-02T07:22:53;6.03;;;2.67;;
69769;SDS011;57282;52.514;13.458;2023-04-02T07:25:19;5.72;;;2.85;;
69769;SDS011;57282;52.514;13.458;2023-04-02T07:27:46;6.43;;;2.92;;
69769;SDS011;57282;52.514;13.458;2023-04-02T07:30:13;5.47;;;2.53;;
69769;SDS011;57282;52.514;13.458;2023-04-02T07:32:39;4.72;;;2.80;;
69769;SDS011;57282;52.514;13.458;2023-04-02T07:35:06;5.22;;;2.22;;
69769;SDS011;57282;52.514;13.458;2023-04-02T07:37:35;5.45;;;2.10;;
69769;SDS011;57282;52.514;13.458;2023-04-02T07:40:02;6.68;;;2.58;;
69769;SDS011;57282;52.514;13.458;2023-04-02T07:42:30;5.40;;;2.37;;
69769;SDS011;57282;52.514;13.458;2023-04-02T07:44:56;5.93;;;2.80;;
69769;SDS011;57282;52.514;13.458;2023-04-02T07:47:23;5.45;;;2.40;;
69769;SDS011;57282;52.514;13.458;2023-04-02T07:49:49;8.13;;;3.25;;
69769;SDS011;57282;52.514;13.458;2023-04-02T07:52:18;8.52;;;3.05;;
69769;SDS011;57282;52.514;13.458;2023-04-02T07:54:47;5.43;;;2.50;;
69769;SDS011;57282;52.514;13.458;2023-04-02T07:57:13;5.97;;;2.53;;
69769;SDS011;57282;52.514;13.458;2023-04-02T07:59:40;5.95;;;2.63;;
69769;SDS011;57282;52.514;13.458;2023-04-02T08:02:12;5.90;;;2.83;;
69769;SDS011;57282;52.514;13.458;2023-04-02T08:04:41;5.72;;;2.47;;
69769;SDS011;57282;52.514;13.458;2023-04-02T08:07:08;6.13;;;3.07;;
69769;SDS011;57282;52.514;13.458;2023-04-02T08:09:34;7.00;;;2.90;;
69769;SDS011;57282;52.514;13.458;2023-04-02T08:12:02;5.45;;;2.85;;
69769;SDS011;57282;52.514;13.458;2023-04-02T08:14:29;6.03;;;2.28;;
69769;SDS011;57282;52.514;13.458;2023-04-02T08:16:55;7.18;;;2.83;;
69769;SDS011;57282;52.514;13.458;2023-04-02T08:19:22;6.90;;;3.10;;
69769;SDS011;57282;52.514;13.458;2023-04-02T08:21:49;8.07;;;3.22;;
69769;SDS011;57282;52.514;13.458;2023-04-02T08:24:15;6.90;;;3.13;;
69769;SDS011;57282;52.514;13.458;2023-04-02T08:26:43;10.52;;;3.90;;
69769;SDS011;57282;52.514;13.458;2023-04-02T08:29:11;8.65;;;3.72;;
69769;SDS011;57282;52.514;13.458;2023-04-02T08:31:46;8.10;;;3.13;;
69769;SDS011;57282;52.514;13.458;2023-04-02T08:34:13;9.65;;;4.05;;
69769;SDS011;57282;52.514;13.458;2023-04-02T08:36:40;11.70;;;4.38;;
69769;SDS011;57282;52.514;13.458;2023-04-02T08:39:07;8.27;;;3.58;;
69769;SDS011;57282;52.514;13.458;2023-04-02T08:41:37;8.13;;;3.95;;
69769;SDS011;57282;52.514;13.458;2023-04-02T08:44:18;10.60;;;4.30;;
69769;SDS011;57282;52.514;13.458;2023-04-02T08:46:48;9.10;;;4.05;;
69769;SDS011;57282;52.514;13.458;2023-04-02T08:49:17;9.88;;;4.50;;
69769;SDS011;57282;52.514;13.458;2023-04-02T08:51:47;10.00;;;4.80;;
69769;SDS011;57282;52.514;13.458;2023-04-02T08:54:16;9.68;;;4.03;;
69769;SDS011;57282;52.514;13.458;2023-04-02T08:56:45;9.67;;;4.63;;
69769;SDS011;57282;52.514;13.458;2023-04-02T08:59:16;8.80;;;4.10;;
69769;SDS011;57282;52.514;13.458;2023-04-02T09:01:48;8.20;;;3.80;;
69769;SDS011;57282;52.514;13.458;2023-04-02T09:04:17;11.90;;;4.68;;
69769;SDS011;57282;52.514;13.458;2023-04-02T09:06:45;9.80;;;4.10;;
69769;SDS011;57282;52.514;13.458;2023-04-02T09:09:12;10.23;;;4.23;;
69769;SDS011;57282;52.514;13.458;2023-04-02T09:11:40;9.27;;;4.47;;
69769;SDS011;57282;52.514;13.458;2023-04-02T09:14:11;10.20;;;5.00;;
69769;SDS011;57282;52.514;13.458;2023-04-02T09:16:41;10.80;;;4.47;;
69769;SDS011;57282;52.514;13.458;2023-04-02T09:19:17;10.68;;;4.93;;
69769;SDS011;57282;52.514;13.458;2023-04-02T09:21:45;11.07;;;5.00;;
69769;SDS011;57282;52.514;13.458;2023-04-02T09:24:13;10.77;;;4.60;;
69769;SDS011;57282;52.514;13.458;2023-04-02T09:26:39;8.73;;;4.07;;
69769;SDS011;57282;52.514;13.458;2023-04-02T09:29:21;8.38;;;4.05;;
69769;SDS011;57282;52.514;13.458;2023-04-02T09:31:51;8.25;;;3.88;;
69769;SDS011;57282;52.514;13.458;2023-04-02T09:34:26;11.27;;;4.57;;
69769;SDS011;57282;52.514;13.458;2023-04-02T09:36:53;8.20;;;3.35;;
69769;SDS011;57282;52.514;13.458;2023-04-02T09:39:21;8.63;;;3.80;;
69769;SDS011;57282;52.514;13.458;2023-04-02T09:41:52;8.57;;;4.65;;
69769;SDS011;57282;52.514;13.458;2023-04-02T09:44:21;8.98;;;4.53;;
69769;SDS011;57282;52.514;13.458;2023-04-02T09:46:52;11.23;;;3.87;;
69769;SDS011;57282;52.514;13.458;2023-04-02T09:49:24;12.07;;;4.90;;
69769;SDS011;57282;52.514;13.458;2023-04-02T09:52:06;10.85;;;4.70;;
69769;SDS011;57282;52.514;13.458;2023-04-02T09:54:36;8.77;;;4.50;;
69769;SDS011;57282;52.514;13.458;2023-04-02T09:57:15;8.75;;;3.70;;
69769;SDS011;57282;52.514;13.458;2023-04-02T09:59:42;8.20;;;3.87;;
69769;SDS011;57282;52.514;13.458;2023-04-02T10:02:21;7.68;;;3.72;;
69769;SDS011;57282;52.514;13.458;2023-04-02T10:04:49;9.63;;;3.55;;
69769;SDS011;57282;52.514;13.458;2023-04-02T10:07:30;12.07;;;4.15;;
69769;SDS011;57282;52.514;13.458;2023-04-02T10:09:59;8.30;;;3.03;;
69769;SDS011;57282;52.514;13.458;2023-04-02T10:12:26;7.07;;;2.30;;
69769;SDS011;57282;52.514;13.458;2023-04-02T10:14:54;6.22;;;2.40;;
69769;SDS011;57282;52.514;13.458;2023-04-02T10:17:23;7.63;;;2.20;;
69769;SDS011;57282;52.514;13.458;2023-04-02T10:19:53;5.93;;;2.50;;
69769;SDS011;57282;52.514;13.458;2023-04-02T10:22:21;8.75;;;2.20;;
69769;SDS011;57282;52.514;13.458;2023-04-02T10:24:49;5.70;;;1.90;;
69769;SDS011;57282;52.514;13.458;2023-04-02T10:27:18;6.57;;;2.28;;
69769;SDS011;57282;52.514;13.458;2023-04-02T10:29:52;5.53;;;1.23;;
69769;SDS011;57282;52.514;13.458;2023-04-02T10:32:22;5.32;;;1.80;;
69769;SDS011;57282;52.514;13.458;2023-04-02T10:34:51;6.75;;;1.75;;
69769;SDS011;57282;52.514;13.458;2023-04-02T10:40:09;4.63;;;1.52;;
69769;SDS011;57282;52.514;13.458;2023-04-02T10:42:37;4.55;;;1.40;;
69769;SDS011;57282;52.514;13.458;2023-04-02T10:45:12;4.72;;;1.35;;
69769;SDS011;57282;52.514;13.458;2023-04-02T10:47:44;5.07;;;1.33;;
69769;SDS011;57282;52.514;13.458;2023-04-02T10:50:17;4.27;;;1.20;;
69769;SDS011;57282;52.514;13.458;2023-04-02T10:52:51;3.78;;;1.10;;
69769;SDS011;57282;52.514;13.458;2023-04-02T10:55:21;3.17;;;0.73;;
69769;SDS011;57282;52.514;13.458;2023-04-02T10:57:49;3.05;;;0.93;;
69769;SDS011;57282;52.514;13.458;2023-04-02T11:00:18;3.65;;;1.13;;
69769;SDS011;57282;52.514;13.458;2023-04-02T11:02:47;3.33;;;1.03;;
69769;SDS011;57282;52.514;13.458;2023-04-02T11:05:17;4.05;;;0.98;;
69769;SDS011;57282;52.514;13.458;2023-04-02T11:07:52;3.75;;;0.88;;
69769;SDS011;57282;52.514;13.458;2023-04-02T11:10:19;7.10;;;1.23;;
69769;SDS011;57282;52.514;13.458;2023-04-02T11:12:49;4.65;;;0.93;;
69769;SDS011;57282;52.514;13.458;2023-04-02T11:15:18;4.07;;;1.20;;
69769;SDS011;57282;52.514;13.458;2023-04-02T11:17:45;7.43;;;1.30;;
69769;SDS011;57282;52.514;13.458;2023-04-02T11:23:05;5.68;;;0.98;;
69769;SDS011;57282;52.514;13.458;2023-04-02T11:25:34;6.10;;;1.65;;
69769;SDS011;57282;52.514;13.458;2023-04-02T11:28:12;7.60;;;1.27;;
69769;SDS011;57282;52.514;13.458;2023-04-02T11:30:39;5.25;;;1.63;;
69769;SDS011;57282;52.514;13.458;2023-04-02T11:33:22;5.28;;;1.85;;
69769;SDS011;57282;52.514;13.458;2023-04-02T11:35:51;6.38;;;1.40;;
69769;SDS011;57282;52.514;13.458;2023-04-02T11:41:04;5.37;;;1.40;;
69769;SDS011;57282;52.514;13.458;2023-04-02T11:43:51;4.78;;;1.75;;
69769;SDS011;57282;52.514;13.458;2023-04-02T11:51:55;3.72;;;1.42;;
69769;SDS011;57282;52.514;13.458;2023-04-02T11:54:22;4.70;;;1.90;;
69769;SDS011;57282;52.514;13.458;2023-04-02T11:56:50;3.92;;;1.38;;
69769;SDS011;57282;52.514;13.458;2023-04-02T11:59:20;3.33;;;0.65;;
69769;SDS011;57282;52.514;13.458;2023-04-02T12:02:00;4.90;;;1.30;;
69769;SDS011;57282;52.514;13.458;2023-04-02T12:04:37;6.00;;;1.40;;
69769;SDS011;57282;52.514;13.458;2023-04-02T12:09:51;4.53;;;1.30;;
69769;SDS011;57282;52.514;13.458;2023-04-02T12:12:23;4.10;;;1.42;;
69769;SDS011;57282;52.514;13.458;2023-04-02T12:14:52;3.90;;;1.27;;
69769;SDS011;57282;52.514;13.458;2023-04-02T12:17:23;5.78;;;1.70;;
69769;SDS011;57282;52.514;13.458;2023-04-02T12:19:51;3.93;;;1.50;;
69769;SDS011;57282;52.514;13.458;2023-04-02T12:22:19;4.47;;;1.95;;
69769;SDS011;57282;52.514;13.458;2023-04-02T12:24:47;4.78;;;1.80;;
69769;SDS011;57282;52.514;13.458;2023-04-02T12:27:18;5.80;;;1.75;;
69769;SDS011;57282;52.514;13.458;2023-04-02T12:29:46;6.80;;;2.03;;
69769;SDS011;57282;52.514;13.458;2023-04-02T12:32:17;5.43;;;1.90;;
69769;SDS011;57282;52.514;13.458;2023-04-02T12:34:45;5.32;;;1.48;;
69769;SDS011;57282;52.514;13.458;2023-04-02T12:37:17;5.68;;;2.10;;
69769;SDS011;57282;52.514;13.458;2023-04-02T12:39:59;5.38;;;2.28;;
69769;SDS011;57282;52.514;13.458;2023-04-02T12:42:49;4.63;;;1.85;;
69769;SDS011;57282;52.514;13.458;2023-04-02T12:45:21;5.40;;;1.90;;
69769;SDS011;57282;52.514;13.458;2023-04-02T12:47:49;7.22;;;1.80;;
69769;SDS011;57282;52.514;13.458;2023-04-02T12:50:17;5.30;;;1.35;;
69769;SDS011;57282;52.514;13.458;2023-04-02T12:52:45;3.70;;;1.48;;
69769;SDS011;57282;52.514;13.458;2023-04-02T12:55:14;4.97;;;1.95;;
69769;SDS011;57282;52.514;13.458;2023-04-02T12:57:42;6.27;;;2.20;;
69769;SDS011;57282;52.514;13.458;2023-04-02T13:00:29;4.60;;;2.03;;
69769;SDS011;57282;52.514;13.458;2023-04-02T13:02:59;5.05;;;1.50;;
69769;SDS011;57282;52.514;13.458;2023-04-02T13:05:30;5.20;;;1.98;;
69769;SDS011;57282;52.514;13.458;2023-04-02T13:07:57;4.07;;;1.73;;
69769;SDS011;57282;52.514;13.458;2023-04-02T13:10:24;4.30;;;1.60;;
69769;SDS011;57282;52.514;13.458;2023-04-02T13:12:53;4.35;;;2.00;;
69769;SDS011;57282;52.514;13.458;2023-04-02T13:15:21;3.70;;;1.40;;
69769;SDS011;57282;52.514;13.458;2023-04-02T13:18:00;6.03;;;1.35;;
69769;SDS011;57282;52.514;13.458;2023-04-02T13:20:29;4.32;;;1.65;;
69769;SDS011;57282;52.514;13.458;2023-04-02T13:22:56;4.77;;;2.00;;
69769;SDS011;57282;52.514;13.458;2023-04-02T13:25:26;4.20;;;1.63;;
69769;SDS011;57282;52.514;13.458;2023-04-02T13:27:53;4.05;;;1.00;;
69769;SDS011;57282;52.514;13.458;2023-04-02T13:30:21;5.13;;;2.05;;
69769;SDS011;57282;52.514;13.458;2023-04-02T13:32:48;3.17;;;1.35;;
69769;SDS011;57282;52.514;13.458;2023-04-02T13:35:15;4.17;;;1.30;;
69769;SDS011;57282;52.514;13.458;2023-04-02T13:37:43;4.25;;;1.60;;
69769;SDS011;57282;52.514;13.458;2023-04-02T13:40:11;4.22;;;2.03;;
69769;SDS011;57282;52.514;13.458;2023-04-02T13:42:38;3.92;;;1.52;;
69769;SDS011;57282;52.514;13.458;2023-04-02T13:45:07;5.20;;;1.80;;
69769;SDS011;57282;52.514;13.458;2023-04-02T13:47:42;3.73;;;1.57;;
69769;SDS011;57282;52.514;13.458;2023-04-02T13:50:08;4.30;;;1.45;;
69769;SDS011;57282;52.514;13.458;2023-04-02T13:52:38;3.58;;;1.13;;
69769;SDS011;57282;52.514;13.458;2023-04-02T13:55:06;4.22;;;1.40;;
69769;SDS011;57282;52.514;13.458;2023-04-02T13:57:34;5.45;;;1.40;;
69769;SDS011;57282;52.514;13.458;2023-04-02T14:00:01;3.77;;;1.30;;
69769;SDS011;57282;52.514;13.458;2023-04-02T14:02:28;3.60;;;1.17;;
69769;SDS011;57282;52.514;13.458;2023-04-02T14:04:57;4.05;;;1.33;;
69769;SDS011;57282;52.514;13.458;2023-04-02T14:07:30;5.55;;;1.52;;
69769;SDS011;57282;52.514;13.458;2023-04-02T14:10:00;4.68;;;1.42;;
69769;SDS011;57282;52.514;13.458;2023-04-02T14:12:43;3.17;;;1.40;;
69769;SDS011;57282;52.514;13.458;2023-04-02T14:15:23;3.40;;;1.50;;
69769;SDS011;57282;52.514;13.458;2023-04-02T14:17:55;7.35;;;2.63;;
69769;SDS011;57282;52.514;13.458;2023-04-02T14:20:29;7.82;;;2.08;;
69769;SDS011;57282;52.514;13.458;2023-04-02T14:23:05;8.93;;;2.50;;
69769;SDS011;57282;52.514;13.458;2023-04-02T14:25:36;4.83;;;1.50;;
69769;SDS011;57282;52.514;13.458;2023-04-02T14:28:07;4.22;;;1.42;;
69769;SDS011;57282;52.514;13.458;2023-04-02T14:30:41;5.75;;;1.98;;
69769;SDS011;57282;52.514;13.458;2023-04-02T14:33:12;4.40;;;1.60;;
69769;SDS011;57282;52.514;13.458;2023-04-02T14:35:44;4.20;;;1.55;;
69769;SDS011;57282;52.514;13.458;2023-04-02T14:38:12;4.60;;;1.80;;
69769;SDS011;57282;52.514;13.458;2023-04-02T14:40:40;3.53;;;1.83;;
69769;SDS011;57282;52.514;13.458;2023-04-02T14:43:13;4.95;;;2.03;;
69769;SDS011;57282;52.514;13.458;2023-04-02T14:45:43;4.43;;;1.52;;
69769;SDS011;57282;52.514;13.458;2023-04-02T14:48:18;4.38;;;1.98;;
69769;SDS011;57282;52.514;13.458;2023-04-02T14:50:46;4.33;;;1.83;;
69769;SDS011;57282;52.514;13.458;2023-04-02T14:53:14;4.20;;;1.98;;
69769;SDS011;57282;52.514;13.458;2023-04-02T14:55:43;4.25;;;1.50;;
69769;SDS011;57282;52.514;13.458;2023-04-02T14:58:14;3.53;;;1.25;;
69769;SDS011;57282;52.514;13.458;2023-04-02T15:00:42;5.35;;;2.10;;
69769;SDS011;57282;52.514;13.458;2023-04-02T15:03:11;4.33;;;1.90;;
69769;SDS011;57282;52.514;13.458;2023-04-02T15:05:40;4.53;;;1.60;;